Time;durP1;ratioP1;P1;durP2;ratioP2;P2;SDS_P1;SDS_P2;PMS_P1;PMS_P2;Temp;Humidity;BMP_temperature;BMP_pressure;BME280_temperature;BME280_humidity;BME280_pressure;Samples;Min_cycle;Max_cycle;Signal;HPM_P1;HPM_P2
2024/01/06 00:02:20;;;;;;;1.87;1.33;;;21.30;81.20;;;;;;5009529;28;20195;-62
2024/01/06 00:04:56;;;;;;;1.60;1.10;;;21.30;81.20;;;;;;5006419;28;20466;-62
2024/01/06 00:07:22;;;;;;;2.50;1.20;;;21.30;81.30;;;;;;5005385;28;21095;-62
2024/01/06 00:09:53;;;;;;;1.80;1.17;;;21.30;81.30;;;;;;5003732;28;20478;-62
2024/01/06 00:12:23;;;;;;;1.80;1.02;;;21.30;81.40;;;;;;5005291;28;21114;-62
2024/01/06 00:14:57;;;;;;;1.30;0.93;;;21.30;81.50;;;;;;5004197;28;20650;-62
2024/01/06 00:17:32;;;;;;;2.13;1.53;;;21.30;81.40;;;;;;5005837;28;20564;-62
2024/01/06 00:20:13;;;;;;;1.42;1.15;;;21.30;81.40;;;;;;5004273;28;20465;-62
2024/01/06 00:22:44;;;;;;;2.42;1.70;;;21.20;81.30;;;;;;5001918;28;20199;-62
2024/01/06 00:25:15;;;;;;;1.70;1.33;;;21.20;81.40;;;;;;5001624;28;20199;-62
2024/01/06 00:27:44;;;;;;;3.65;1.83;;;21.20;81.40;;;;;;5005687;28;20993;-62
2024/01/06 00:32:57;;;;;;;3.07;1.67;;;21.20;81.50;;;;;;5002609;28;20210;-62
2024/01/06 00:35:33;;;;;;;2.38;2.17;;;21.10;81.50;;;;;;5003173;28;20473;-62
2024/01/06 00:38:02;;;;;;;2.37;1.50;;;21.10;81.70;;;;;;5003681;28;20206;-62
2024/01/06 00:40:30;;;;;;;3.03;1.43;;;21.10;81.50;;;;;;5003570;28;20477;-62
2024/01/06 00:42:59;;;;;;;1.47;1.20;;;21.10;81.50;;;;;;5007283;28;20806;-62
2024/01/06 00:45:31;;;;;;;1.73;1.15;;;21.10;81.50;;;;;;5014589;28;20465;-62
2024/01/06 00:48:02;;;;;;;1.75;1.30;;;21.10;81.50;;;;;;5018440;28;20200;-61
2024/01/06 00:50:32;;;;;;;1.75;1.33;;;21.10;81.50;;;;;;5012243;28;20219;-62
2024/01/06 00:53:00;;;;;;;2.90;1.20;;;21.10;81.50;;;;;;5002768;28;20329;-62
2024/01/06 00:55:34;;;;;;;2.03;1.00;;;21.00;81.40;;;;;;5007410;28;20204;-62
2024/01/06 00:58:03;;;;;;;1.77;1.15;;;21.10;81.70;;;;;;5009345;28;20907;-62
2024/01/06 01:00:33;;;;;;;2.05;1.30;;;21.00;81.60;;;;;;5003985;28;20234;-61
2024/01/06 01:03:04;;;;;;;1.40;1.00;;;21.00;81.50;;;;;;5002480;28;20199;-62
2024/01/06 01:05:35;;;;;;;2.13;1.10;;;21.00;81.50;;;;;;4995063;28;20454;-62
2024/01/06 01:08:05;;;;;;;2.50;2.00;;;21.00;81.60;;;;;;4999278;28;20462;-62
2024/01/06 01:10:37;;;;;;;3.35;1.60;;;21.00;81.60;;;;;;4998643;28;20706;-62
2024/01/06 01:13:15;;;;;;;1.17;0.93;;;20.90;81.60;;;;;;5007168;28;20204;-62
2024/01/06 01:15:47;;;;;;;2.00;1.02;;;20.90;81.50;;;;;;5003017;28;20201;-62
2024/01/06 01:18:22;;;;;;;2.00;1.27;;;20.90;81.60;;;;;;5005316;28;20203;-62
2024/01/06 01:20:53;;;;;;;1.73;1.10;;;20.90;81.80;;;;;;5006797;28;20502;-62
2024/01/06 01:23:23;;;;;;;1.45;1.10;;;20.90;81.60;;;;;;5006225;28;20469;-62
2024/01/06 01:25:53;;;;;;;1.73;1.23;;;20.90;81.60;;;;;;5004291;28;20195;-62
2024/01/06 01:28:21;;;;;;;1.13;0.90;;;20.90;81.80;;;;;;5005213;28;20240;-62
2024/01/06 01:30:51;;;;;;;1.55;0.93;;;20.90;82.50;;;;;;5005285;28;20483;-62
2024/01/06 01:33:20;;;;;;;1.30;1.02;;;20.90;81.60;;;;;;5008526;28;20491;-62
2024/01/06 01:35:57;;;;;;;1.85;1.10;;;20.90;81.50;;;;;;5004140;28;20206;-62
2024/01/06 01:38:29;;;;;;;1.55;1.23;;;20.90;81.70;;;;;;5011424;28;26445;-62
2024/01/06 01:40:59;;;;;;;2.13;1.30;;;20.80;81.60;;;;;;5004608;28;20222;-62
2024/01/06 01:43:31;;;;;;;1.55;1.00;;;20.80;81.60;;;;;;5006365;28;20191;-62
2024/01/06 01:46:01;;;;;;;2.15;1.30;;;20.80;81.50;;;;;;4999815;28;20211;-62
2024/01/06 01:48:28;;;;;;;2.70;1.52;;;20.80;81.70;;;;;;5004648;28;20215;-62
2024/01/06 01:50:59;;;;;;;2.28;1.25;;;20.80;81.70;;;;;;5000643;28;20224;-62
2024/01/06 01:53:31;;;;;;;1.63;1.30;;;20.80;81.80;;;;;;5003062;28;20230;-62
2024/01/06 01:56:00;;;;;;;2.05;1.10;;;20.80;81.80;;;;;;5006019;28;20199;-62
2024/01/06 01:58:29;;;;;;;2.60;1.50;;;20.80;81.70;;;;;;5007425;28;20267;-62
2024/01/06 02:00:58;;;;;;;1.60;1.17;;;20.80;81.50;;;;;;5002606;28;20200;-62
2024/01/06 02:03:27;;;;;;;1.75;1.25;;;20.70;81.40;;;;;;5005955;28;20800;-62
2024/01/06 02:06:04;;;;;;;1.85;1.33;;;20.70;82.10;;;;;;5005752;28;20204;-62
2024/01/06 02:08:32;;;;;;;1.70;1.20;;;20.70;81.60;;;;;;5007537;28;20628;-62
2024/01/06 02:11:05;;;;;;;2.00;1.20;;;20.70;81.60;;;;;;5004952;28;20214;-62
2024/01/06 02:13:39;;;;;;;1.50;1.30;;;20.70;81.70;;;;;;5010572;28;20648;-62
2024/01/06 02:16:06;;;;;;;2.70;1.25;;;20.70;81.70;;;;;;5008527;28;20196;-62
2024/01/06 02:18:44;;;;;;;1.40;1.10;;;20.70;81.70;;;;;;5007146;28;20214;-62
2024/01/06 02:21:18;;;;;;;2.45;1.38;;;20.70;81.70;;;;;;5007932;28;20325;-62
2024/01/06 02:23:53;;;;;;;2.10;1.50;;;20.70;81.60;;;;;;5009352;28;20210;-61
2024/01/06 02:26:22;;;;;;;3.45;1.17;;;20.70;81.50;;;;;;5008519;28;20214;-63
2024/01/06 02:28:54;;;;;;;1.90;1.10;;;20.60;81.40;;;;;;5007823;28;20222;-62
2024/01/06 02:31:23;;;;;;;1.35;1.25;;;20.60;81.50;;;;;;5009550;28;20222;-62
2024/01/06 02:33:50;;;;;;;2.00;1.20;;;20.60;81.50;;;;;;5012531;28;20673;-62
2024/01/06 02:36:20;;;;;;;2.30;1.10;;;20.60;81.50;;;;;;5011308;28;20233;-62
2024/01/06 02:38:53;;;;;;;1.42;1.20;;;20.60;81.90;;;;;;5008587;28;20458;-62
2024/01/06 02:41:32;;;;;;;1.30;1.02;;;20.60;81.80;;;;;;5008449;28;20408;-62
2024/01/06 02:44:03;;;;;;;1.90;1.45;;;20.60;81.50;;;;;;5010885;28;20285;-62
2024/01/06 02:46:42;;;;;;;2.72;1.27;;;20.60;81.70;;;;;;5003632;28;20533;-62
2024/01/06 02:49:14;;;;;;;1.40;0.90;;;20.60;81.60;;;;;;5006206;28;20663;-62
2024/01/06 02:51:43;;;;;;;1.75;1.13;;;20.60;81.70;;;;;;5007803;28;20222;-62
2024/01/06 02:54:16;;;;;;;1.65;1.02;;;20.60;81.50;;;;;;5005005;28;20555;-62
2024/01/06 02:56:42;;;;;;;1.45;1.10;;;20.60;81.70;;;;;;5004935;28;20226;-62
2024/01/06 02:59:11;;;;;;;2.13;1.17;;;20.60;81.70;;;;;;5004911;28;20207;-61
2024/01/06 03:01:39;;;;;;;1.73;1.10;;;20.60;81.70;;;;;;5003838;28;20210;-62
2024/01/06 03:04:09;;;;;;;1.17;0.90;;;20.60;81.60;;;;;;5003800;28;20195;-62
2024/01/06 03:06:37;;;;;;;1.60;1.08;;;20.50;81.70;;;;;;5004963;28;20415;-62
2024/01/06 03:09:04;;;;;;;1.30;1.20;;;20.50;81.50;;;;;;4999228;28;20218;-62
2024/01/06 03:11:38;;;;;;;1.60;1.02;;;20.50;81.40;;;;;;5003333;28;20226;-62
2024/01/06 03:14:11;;;;;;;1.60;1.40;;;20.50;81.40;;;;;;5004688;28;20773;-62
2024/01/06 03:16:51;;;;;;;2.05;1.23;;;20.50;81.40;;;;;;5006580;28;20530;-62
2024/01/06 03:19:29;;;;;;;1.25;1.00;;;20.50;81.70;;;;;;4999789;28;20199;-62
2024/01/06 03:21:59;;;;;;;2.45;1.60;;;20.50;81.50;;;;;;5005309;28;20280;-62
2024/01/06 03:27:16;;;;;;;1.80;1.45;;;20.50;81.70;;;;;;5003645;28;20234;-62
2024/01/06 03:29:47;;;;;;;1.40;1.00;;;20.50;81.60;;;;;;5002110;28;23798;-62
2024/01/06 03:32:25;;;;;;;1.88;1.17;;;20.50;81.70;;;;;;5002192;28;20199;-62
2024/01/06 03:34:54;;;;;;;2.42;1.40;;;20.50;81.50;;;;;;5004972;28;20776;-62
2024/01/06 03:37:24;;;;;;;3.53;1.65;;;20.50;81.50;;;;;;5004271;28;20498;-62
2024/01/06 03:40:00;;;;;;;1.58;1.20;;;20.40;81.40;;;;;;5006941;28;20396;-62
2024/01/06 03:42:38;;;;;;;1.70;1.20;;;20.40;81.30;;;;;;5004938;28;20576;-61
2024/01/06 03:45:07;;;;;;;1.65;1.30;;;20.40;81.40;;;;;;5001986;28;21041;-62
2024/01/06 03:47:43;;;;;;;2.10;1.40;;;20.40;81.50;;;;;;5004129;28;20203;-62
2024/01/06 03:50:16;;;;;;;1.58;1.45;;;20.40;81.50;;;;;;5002964;28;20206;-62
2024/01/06 03:52:42;;;;;;;1.00;0.80;;;20.40;81.30;;;;;;5005597;28;20628;-62
2024/01/06 03:55:11;;;;;;;2.22;1.35;;;20.40;81.50;;;;;;5003275;28;20204;-62
2024/01/06 03:57:43;;;;;;;1.90;1.30;;;20.40;81.40;;;;;;5004048;28;20196;-61
2024/01/06 04:00:17;;;;;;;1.38;1.10;;;20.40;81.50;;;;;;5002543;28;20203;-62
2024/01/06 04:02:50;;;;;;;1.42;1.10;;;20.40;81.40;;;;;;5004733;28;20203;-62
2024/01/06 04:05:20;;;;;;;2.20;1.10;;;20.40;81.40;;;;;;4998138;28;20241;-62
2024/01/06 04:07:50;;;;;;;1.85;1.05;;;20.40;81.40;;;;;;5006826;28;20765;-62
2024/01/06 04:10:22;;;;;;;1.20;1.00;;;20.40;81.90;;;;;;5008841;28;20206;-62
2024/01/06 04:12:56;;;;;;;1.40;1.13;;;20.40;81.40;;;;;;5009815;28;20230;-62
2024/01/06 04:15:30;;;;;;;1.30;0.80;;;20.40;81.60;;;;;;5005043;28;20203;-62
2024/01/06 04:18:03;;;;;;;1.60;1.10;;;20.40;81.40;;;;;;5006145;28;20524;-62
2024/01/06 04:20:32;;;;;;;1.33;1.00;;;20.40;81.50;;;;;;5006277;28;20857;-62
2024/01/06 04:23:07;;;;;;;1.40;1.00;;;20.40;81.50;;;;;;5006884;28;20678;-62
2024/01/06 04:25:37;;;;;;;1.33;0.93;;;20.40;81.60;;;;;;5004879;28;20292;-62
2024/01/06 04:28:14;;;;;;;1.55;1.10;;;20.40;81.30;;;;;;5005309;28;20223;-61
2024/01/06 04:30:43;;;;;;;1.30;1.10;;;20.40;81.70;;;;;;5004495;28;20938;-62
2024/01/06 04:33:23;;;;;;;1.92;1.20;;;20.40;81.50;;;;;;5006728;28;20202;-62
2024/01/06 04:35:51;;;;;;;1.00;0.90;;;20.40;81.50;;;;;;5003069;28;20334;-62
2024/01/06 04:38:19;;;;;;;1.50;1.20;;;20.40;81.30;;;;;;5004444;28;21243;-62
2024/01/06 04:40:53;;;;;;;1.40;1.25;;;20.40;82.20;;;;;;5007345;28;20743;-62
2024/01/06 04:43:30;;;;;;;1.42;1.00;;;20.30;81.40;;;;;;5005950;28;20203;-62
2024/01/06 04:45:57;;;;;;;1.60;0.90;;;20.30;81.20;;;;;;5004956;28;20223;-62
2024/01/06 04:48:24;;;;;;;2.25;1.25;;;20.30;82.20;;;;;;5008344;28;20316;-62
2024/01/06 04:50:53;;;;;;;1.70;1.30;;;20.30;81.30;;;;;;5003836;28;20226;-62
2024/01/06 04:53:21;;;;;;;1.95;1.40;;;20.40;81.50;;;;;;5006315;28;20206;-62
2024/01/06 04:55:53;;;;;;;1.90;1.50;;;20.30;81.20;;;;;;5005644;28;27743;-62
2024/01/06 04:58:21;;;;;;;1.65;1.05;;;20.30;81.20;;;;;;5006932;28;20204;-62
2024/01/06 05:00:54;;;;;;;1.27;1.15;;;20.30;81.30;;;;;;5000413;28;20205;-62
2024/01/06 05:03:24;;;;;;;1.92;1.30;;;20.30;81.30;;;;;;5005030;28;20294;-62
2024/01/06 05:05:57;;;;;;;1.38;1.17;;;20.30;81.30;;;;;;5004430;28;20194;-62
2024/01/06 05:08:31;;;;;;;1.23;1.02;;;20.30;81.30;;;;;;4996087;28;20634;-62
2024/01/06 05:11:00;;;;;;;1.75;1.10;;;20.30;81.20;;;;;;5002711;28;20215;-62
2024/01/06 05:13:40;;;;;;;2.10;1.30;;;20.30;81.20;;;;;;5003981;28;20659;-62
2024/01/06 05:16:10;;;;;;;1.23;0.85;;;20.30;81.20;;;;;;5006146;28;22039;-62
2024/01/06 05:18:46;;;;;;;1.33;1.20;;;20.30;81.20;;;;;;5004542;28;20200;-62
2024/01/06 05:21:12;;;;;;;2.05;1.10;;;20.30;81.20;;;;;;5004018;28;23054;-62
2024/01/06 05:23:42;;;;;;;1.40;1.10;;;20.30;81.20;;;;;;5003878;28;20203;-62
2024/01/06 05:26:16;;;;;;;1.63;1.10;;;20.30;81.30;;;;;;5003585;28;20206;-62
2024/01/06 05:28:54;;;;;;;;;;;;;;;;;;;;;
2024/01/06 05:31:29;;;;;;;1.42;0.90;;;20.30;81.20;;;;;;4998476;28;20921;-63
2024/01/06 05:33:58;;;;;;;1.40;1.10;;;20.20;81.20;;;;;;5002504;28;20265;-63
2024/01/06 05:36:25;;;;;;;1.50;1.05;;;20.20;81.10;;;;;;5006404;28;20208;-63
2024/01/06 05:39:00;;;;;;;1.48;1.08;;;20.30;81.20;;;;;;5004423;28;21260;-63
2024/01/06 05:41:33;;;;;;;2.00;1.20;;;20.20;81.20;;;;;;5008740;28;20976;-63
2024/01/06 05:44:06;;;;;;;1.27;0.95;;;20.20;81.10;;;;;;5008589;28;20199;-61
2024/01/06 05:46:41;;;;;;;1.17;1.08;;;20.20;81.30;;;;;;5011943;28;20314;-63
2024/01/06 05:49:15;;;;;;;1.25;1.05;;;20.20;81.20;;;;;;5004323;28;20664;-63
2024/01/06 05:51:49;;;;;;;1.20;1.00;;;20.20;81.20;;;;;;5013627;28;20218;-63
2024/01/06 05:54:18;;;;;;;1.30;0.95;;;20.20;81.40;;;;;;5010894;28;20202;-63
2024/01/06 05:56:47;;;;;;;2.38;1.45;;;20.20;81.40;;;;;;5006905;28;20195;-62
2024/01/06 06:02:06;;;;;;;2.05;1.10;;;20.20;81.50;;;;;;5006381;28;20415;-63
2024/01/06 06:04:33;;;;;;;2.03;1.17;;;20.20;81.50;;;;;;5010379;28;20289;-62
2024/01/06 06:07:06;;;;;;;1.83;1.33;;;20.20;81.30;;;;;;5010111;28;22051;-63
2024/01/06 06:09:39;;;;;;;1.90;0.98;;;20.20;81.30;;;;;;5006080;28;20208;-63
2024/01/06 06:12:11;;;;;;;1.42;0.80;;;20.20;81.30;;;;;;5007537;28;20230;-62
2024/01/06 06:14:46;;;;;;;1.40;1.10;;;20.20;81.40;;;;;;5005105;28;21453;-61
2024/01/06 06:17:17;;;;;;;0.93;0.70;;;20.20;81.30;;;;;;5011921;28;20476;-61
2024/01/06 06:19:46;;;;;;;2.20;1.10;;;20.20;81.40;;;;;;5011215;28;20218;-62
2024/01/06 06:22:21;;;;;;;1.60;1.20;;;20.20;81.40;;;;;;5009235;28;20210;-61
2024/01/06 06:24:52;;;;;;;1.70;1.13;;;20.20;81.70;;;;;;5011271;28;20713;-61
2024/01/06 06:27:28;;;;;;;1.35;1.00;;;20.20;81.40;;;;;;5010221;28;20200;-62
2024/01/06 06:29:58;;;;;;;1.42;1.00;;;20.20;81.50;;;;;;5005212;28;20214;-61
2024/01/06 06:32:32;;;;;;;1.00;0.80;;;20.20;81.20;;;;;;5009771;28;20226;-61
2024/01/06 06:35:05;;;;;;;1.50;1.00;;;20.20;81.30;;;;;;5006146;28;20203;-60
2024/01/06 06:37:37;;;;;;;1.70;0.90;;;20.10;81.30;;;;;;5011714;28;20794;-62
2024/01/06 06:40:09;;;;;;;1.52;1.10;;;20.20;81.50;;;;;;5008284;28;20474;-62
2024/01/06 06:42:35;;;;;;;1.00;0.82;;;20.20;81.40;;;;;;5013568;28;20199;-61
2024/01/06 06:45:06;;;;;;;1.70;1.00;;;20.20;81.30;;;;;;5009670;28;20218;-61
2024/01/06 06:47:41;;;;;;;1.48;1.10;;;20.20;81.50;;;;;;5008588;28;20210;-61
2024/01/06 06:50:08;;;;;;;1.60;1.45;;;20.10;81.30;;;;;;5006195;28;20199;-62
2024/01/06 06:52:39;;;;;;;1.48;1.13;;;20.10;81.20;;;;;;5009753;28;20804;-61
2024/01/06 06:55:12;;;;;;;1.73;1.00;;;20.10;81.20;;;;;;5001407;28;20738;-62
2024/01/06 06:57:42;;;;;;;1.02;0.88;;;20.10;81.20;;;;;;5009730;28;20796;-62
2024/01/06 07:00:21;;;;;;;1.50;1.10;;;20.10;81.20;;;;;;5003545;28;20196;-62
2024/01/06 07:03:01;;;;;;;1.10;0.90;;;20.10;81.40;;;;;;5011699;28;20202;-62
2024/01/06 07:05:38;;;;;;;1.20;0.93;;;20.10;81.60;;;;;;5005433;28;20660;-62
2024/01/06 07:08:21;;;;;;;;;;;;;;;;;;;;;
2024/01/06 07:10:48;;;;;;;1.10;0.93;;;20.10;81.30;;;;;;5004178;28;20531;-62
2024/01/06 07:13:14;;;;;;;1.52;0.80;;;20.10;81.40;;;;;;5003971;28;20230;-62
2024/01/06 07:15:42;;;;;;;1.10;0.95;;;20.10;81.40;;;;;;5000068;28;20199;-62
2024/01/06 07:18:15;;;;;;;1.25;0.90;;;20.10;81.50;;;;;;5005118;28;20683;-62
2024/01/06 07:20:45;;;;;;;1.58;1.20;;;20.10;81.40;;;;;;5004685;28;20199;-62
2024/01/06 07:23:19;;;;;;;1.25;0.90;;;20.10;81.40;;;;;;5003840;28;20203;-61
2024/01/06 07:25:54;;;;;;;1.45;1.00;;;20.10;81.20;;;;;;5005142;28;20195;-61
2024/01/06 07:28:22;;;;;;;6.70;1.20;;;20.10;81.30;;;;;;5003296;28;20662;-61
2024/01/06 07:30:56;;;;;;;1.85;0.90;;;20.10;81.60;;;;;;5003451;28;20762;-64
2024/01/06 07:33:25;;;;;;;2.78;1.17;;;20.10;81.70;;;;;;5006983;28;20226;-62
2024/01/06 07:35:57;;;;;;;2.58;1.25;;;20.10;82.10;;;;;;5004761;28;20325;-63
2024/01/06 07:38:41;;;;;;;11.27;1.10;;;20.10;82.70;;;;;;4999615;28;20233;-64
2024/01/06 07:41:08;;;;;;;3.47;1.10;;;20.20;82.80;;;;;;5003649;28;20196;-64
2024/01/06 07:43:40;;;;;;;1.35;1.08;;;20.20;83.10;;;;;;5004063;28;21137;-65
2024/01/06 07:46:18;;;;;;;6.47;0.93;;;20.20;83.30;;;;;;4998722;28;20210;-63
2024/01/06 07:48:53;;;;;;;1.10;0.95;;;20.20;83.60;;;;;;5001308;28;20217;-63
2024/01/06 07:51:26;;;;;;;1.10;1.00;;;20.30;84.00;;;;;;5000108;28;20248;-65
2024/01/06 07:53:58;;;;;;;3.08;0.90;;;20.30;84.10;;;;;;4997454;28;20192;-66
2024/01/06 07:56:26;;;;;;;1.00;0.80;;;20.30;84.50;;;;;;5001342;28;20353;-66
2024/01/06 07:58:57;;;;;;;1.73;1.10;;;20.30;84.40;;;;;;4990717;28;20829;-66
2024/01/06 08:01:29;;;;;;;1.10;0.80;;;20.40;84.60;;;;;;4999372;28;20190;-62
2024/01/06 08:03:56;;;;;;;1.27;0.98;;;20.40;85.10;;;;;;4999588;28;20649;-64
2024/01/06 08:06:29;;;;;;;1.75;1.10;;;20.40;85.00;;;;;;4993977;28;20218;-70
2024/01/06 08:08:55;;;;;;;1.08;0.90;;;20.40;85.30;;;;;;5000801;28;20290;-66
2024/01/06 08:11:29;;;;;;;1.30;0.93;;;20.40;85.40;;;;;;4993168;28;20207;-66
2024/01/06 08:14:00;;;;;;;2.73;0.80;;;20.50;85.40;;;;;;4990207;28;20207;-65
2024/01/06 08:16:30;;;;;;;1.93;0.90;;;20.50;85.30;;;;;;4995562;28;20462;-69
2024/01/06 08:19:00;;;;;;;1.75;0.80;;;20.50;85.40;;;;;;4998047;28;20462;-66
2024/01/06 08:21:26;;;;;;;1.90;0.98;;;20.50;85.30;;;;;;4999005;28;20851;-66
2024/01/06 08:24:00;;;;;;;1.10;0.77;;;20.50;85.20;;;;;;4993654;28;20769;-66
2024/01/06 08:26:28;;;;;;;4.50;1.00;;;20.60;85.20;;;;;;4997557;28;20219;-67
2024/01/06 08:28:57;;;;;;;1.10;0.80;;;20.60;85.30;;;;;;4997972;28;20674;-67
2024/01/06 08:31:30;;;;;;;1.10;0.75;;;20.60;85.20;;;;;;4997445;28;20199;-68
2024/01/06 08:34:09;;;;;;;1.00;0.80;;;20.60;85.20;;;;;;4996536;28;20201;-65
2024/01/06 08:36:38;;;;;;;0.90;0.70;;;20.60;85.00;;;;;;4996801;28;20207;-64
2024/01/06 08:39:05;;;;;;;0.90;0.70;;;20.70;85.00;;;;;;4994349;28;20489;-64
2024/01/06 08:41:39;;;;;;;5.05;0.90;;;20.70;84.80;;;;;;4997580;28;20465;-64
2024/01/06 08:44:07;;;;;;;1.17;0.85;;;20.70;84.80;;;;;;5003823;28;20195;-63
2024/01/06 08:46:35;;;;;;;1.33;0.90;;;20.80;84.80;;;;;;4992169;28;20204;-60
2024/01/06 08:49:07;;;;;;;0.93;0.77;;;20.80;84.90;;;;;;5003182;28;20462;-62
2024/01/06 08:52:01;;;;;;;1.33;0.80;;;20.80;84.80;;;;;;5005109;28;20234;-63
2024/01/06 08:54:28;;;;;;;1.10;0.90;;;20.70;84.70;;;;;;5004678;28;21019;-62
2024/01/06 08:56:58;;;;;;;2.03;0.90;;;20.70;84.50;;;;;;5004409;28;20223;-61
2024/01/06 08:59:29;;;;;;;1.47;0.90;;;20.70;84.40;;;;;;5005791;28;20836;-60
2024/01/06 09:02:02;;;;;;;1.33;0.87;;;20.70;84.40;;;;;;5004227;28;20803;-62
2024/01/06 09:04:30;;;;;;;1.42;0.90;;;20.70;84.40;;;;;;5006736;28;20982;-63
2024/01/06 09:07:03;;;;;;;1.05;0.88;;;20.70;84.20;;;;;;5005680;28;20203;-63
2024/01/06 09:09:39;;;;;;;1.38;0.90;;;20.70;84.10;;;;;;5005419;28;20198;-59
2024/01/06 09:12:08;;;;;;;1.30;0.90;;;20.80;83.90;;;;;;5006728;28;20587;-60
2024/01/06 09:14:41;;;;;;;1.87;1.17;;;20.80;83.90;;;;;;5011843;28;20523;-62
2024/01/06 09:17:25;;;;;;;1.40;0.90;;;20.80;83.80;;;;;;5011350;28;20462;-61
2024/01/06 09:20:00;;;;;;;1.67;1.00;;;20.80;83.80;;;;;;5005924;28;20630;-61
2024/01/06 09:22:32;;;;;;;1.25;0.90;;;20.80;83.80;;;;;;5011598;28;20202;-61
2024/01/06 09:25:03;;;;;;;1.40;0.70;;;20.80;83.80;;;;;;5010303;28;20277;-61
2024/01/06 09:27:32;;;;;;;1.88;0.90;;;20.80;83.70;;;;;;5011301;28;20472;-61
2024/01/06 09:29:59;;;;;;;1.48;1.13;;;20.80;84.40;;;;;;5009101;28;20661;-60
2024/01/06 09:32:27;;;;;;;1.20;0.90;;;20.80;83.50;;;;;;5013013;28;20227;-60
2024/01/06 09:34:57;;;;;;;1.20;0.80;;;20.80;83.40;;;;;;5011882;28;20211;-61
2024/01/06 09:37:31;;;;;;;1.45;0.88;;;20.80;83.40;;;;;;5009862;28;20190;-60
2024/01/06 09:40:08;;;;;;;1.23;0.90;;;20.80;83.40;;;;;;5004295;28;20199;-61
2024/01/06 09:42:41;;;;;;;1.05;0.73;;;20.80;83.30;;;;;;5006681;28;20917;-59
2024/01/06 09:45:16;;;;;;;2.88;0.85;;;20.80;83.20;;;;;;5006265;28;22124;-59
2024/01/06 09:47:50;;;;;;;2.08;1.15;;;20.80;83.10;;;;;;5008913;28;20329;-61
2024/01/06 09:50:21;;;;;;;5.47;0.80;;;20.80;83.10;;;;;;5005931;28;20664;-62
2024/01/06 09:52:54;;;;;;;5.50;1.30;;;20.80;83.30;;;;;;5009206;28;20583;-61
2024/01/06 09:55:32;;;;;;;3.45;0.85;;;20.80;83.20;;;;;;4998174;28;20454;-62
2024/01/06 09:58:04;;;;;;;1.20;0.90;;;20.80;83.20;;;;;;5007220;28;20286;-61
2024/01/06 10:00:33;;;;;;;2.67;0.95;;;20.80;83.20;;;;;;4995927;28;20267;-61
2024/01/06 10:03:07;;;;;;;5.13;0.80;;;20.80;83.10;;;;;;5005975;28;20200;-60
2024/01/06 10:05:36;;;;;;;4.50;0.82;;;20.80;83.20;;;;;;5008365;28;20191;-60
2024/01/06 10:08:07;;;;;;;3.45;1.10;;;20.80;83.20;;;;;;5007565;28;20203;-60
2024/01/06 10:10:44;;;;;;;3.28;0.82;;;20.80;83.30;;;;;;5001526;28;20710;-57
2024/01/06 10:13:17;;;;;;;1.20;0.97;;;20.80;83.20;;;;;;5006847;28;20345;-59
2024/01/06 10:15:51;;;;;;;2.08;0.98;;;20.80;83.30;;;;;;5005384;28;20951;-58
2024/01/06 10:18:31;;;;;;;;;;;;;;;;;;;;;
2024/01/06 10:21:01;;;;;;;3.15;1.00;;;20.70;83.20;;;;;;5008372;28;20705;-58
2024/01/06 10:23:29;;;;;;;1.20;0.80;;;20.70;83.10;;;;;;5005433;28;20207;-58
2024/01/06 10:25:56;;;;;;;1.30;1.00;;;20.70;83.10;;;;;;5005170;28;20195;-57
2024/01/06 10:28:30;;;;;;;1.10;0.82;;;20.70;83.10;;;;;;5005753;28;20628;-61
2024/01/06 10:30:59;;;;;;;1.10;0.90;;;20.70;83.10;;;;;;5008515;28;20626;-60
2024/01/06 10:33:41;;;;;;;1.48;0.73;;;20.70;83.10;;;;;;5008349;28;20224;-59
2024/01/06 10:36:14;;;;;;;1.38;1.00;;;20.70;83.10;;;;;;5005359;28;20192;-59
2024/01/06 10:38:45;;;;;;;1.10;0.80;;;20.70;83.10;;;;;;5010291;28;20196;-60
2024/01/06 10:41:16;;;;;;;2.60;1.00;;;20.70;83.00;;;;;;5007911;28;20207;-60
2024/01/06 10:43:50;;;;;;;2.85;0.75;;;20.70;83.10;;;;;;5012907;28;20575;-60
2024/01/06 10:46:22;;;;;;;1.20;0.80;;;20.70;83.00;;;;;;5001337;28;20322;-59
2024/01/06 10:49:00;;;;;;;1.35;0.90;;;20.70;83.00;;;;;;5012895;28;20202;-59
2024/01/06 10:51:34;;;;;;;0.95;0.77;;;20.70;83.00;;;;;;5005402;28;20200;-58
2024/01/06 10:54:12;;;;;;;1.30;0.90;;;20.60;82.80;;;;;;5006344;28;20223;-60
2024/01/06 10:56:41;;;;;;;1.45;1.10;;;20.60;82.80;;;;;;5007808;28;20211;-59
2024/01/06 10:59:21;;;;;;;1.20;0.90;;;20.60;82.90;;;;;;5001047;28;20206;-58
2024/01/06 11:01:52;;;;;;;1.80;0.85;;;20.60;82.80;;;;;;5011445;28;21031;-58
2024/01/06 11:04:24;;;;;;;0.90;0.80;;;20.60;82.70;;;;;;5002381;28;20344;-60
2024/01/06 11:06:53;;;;;;;0.98;0.70;;;20.60;82.80;;;;;;5005374;28;20195;-61
2024/01/06 11:09:29;;;;;;;1.13;0.82;;;20.60;83.70;;;;;;5004646;28;20828;-60
2024/01/06 11:12:03;;;;;;;2.00;0.80;;;20.60;83.00;;;;;;5006376;28;20230;-58
2024/01/06 11:14:38;;;;;;;1.08;0.85;;;20.60;82.80;;;;;;4994392;28;20474;-65
2024/01/06 11:17:10;;;;;;;1.58;0.85;;;20.60;83.00;;;;;;5008977;28;20743;-63
2024/01/06 11:19:51;;;;;;;1.30;0.82;;;20.60;83.20;;;;;;4998440;28;20203;-62
2024/01/06 11:22:24;;;;;;;1.42;0.90;;;20.60;83.40;;;;;;5002811;28;20196;-66
2024/01/06 11:24:58;;;;;;;1.17;0.93;;;20.60;83.50;;;;;;5003741;28;20202;-62
2024/01/06 11:27:28;;;;;;;1.38;1.02;;;20.60;83.60;;;;;;5005045;28;20191;-57
2024/01/06 11:29:58;;;;;;;2.40;0.88;;;20.70;83.80;;;;;;5006316;28;20196;-60
2024/01/06 11:32:38;;;;;;;1.63;0.93;;;20.70;83.90;;;;;;5002559;28;20224;-64
2024/01/06 11:35:13;;;;;;;1.55;0.80;;;20.70;83.90;;;;;;5001996;28;20203;-61
2024/01/06 11:38:03;;;;;;;1.10;0.80;;;20.70;84.10;;;;;;5007134;28;20202;-63
2024/01/06 11:40:37;;;;;;;2.00;0.90;;;20.70;84.10;;;;;;5003042;28;20533;-63
2024/01/06 11:43:15;;;;;;;6.07;1.95;;;20.70;84.20;;;;;;5009525;28;20199;-61
2024/01/06 11:45:44;;;;;;;1.10;0.80;;;20.70;84.20;;;;;;5007299;28;20349;-66
2024/01/06 11:48:12;;;;;;;1.42;0.80;;;20.70;84.70;;;;;;5005799;28;20207;-64
2024/01/06 11:50:53;;;;;;;;;;;;;;;;;;;;;
2024/01/06 11:53:30;;;;;;;7.43;0.90;;;20.80;84.70;;;;;;5001863;28;20238;-67
2024/01/06 11:55:56;;;;;;;1.50;0.90;;;20.80;84.70;;;;;;5003719;28;27515;-67
2024/01/06 11:58:36;;;;;;;;;;;;;;;;;;;;;
2024/01/06 12:01:04;;;;;;;1.17;0.90;;;20.80;84.80;;;;;;5007143;28;20901;-63
2024/01/06 12:03:33;;;;;;;1.20;0.80;;;20.80;84.80;;;;;;5001095;28;20203;-64
2024/01/06 12:06:05;;;;;;;2.35;0.80;;;20.80;84.80;;;;;;5006083;28;20677;-61
2024/01/06 12:08:33;;;;;;;1.60;1.02;;;20.80;84.90;;;;;;5007736;28;20204;-68
2024/01/06 12:11:13;;;;;;;1.35;0.75;;;20.90;84.90;;;;;;5011440;28;20763;-58
2024/01/06 12:13:44;;;;;;;1.00;0.70;;;20.90;84.80;;;;;;5005509;28;20373;-54
2024/01/06 12:16:13;;;;;;;2.20;1.00;;;20.90;84.70;;;;;;5000717;28;20199;-64
2024/01/06 12:18:42;;;;;;;1.30;0.80;;;21.00;84.70;;;;;;5003438;28;20248;-60
2024/01/06 12:21:25;;;;;;;3.53;0.90;;;21.00;84.80;;;;;;5000904;28;20673;-60
2024/01/06 12:24:17;;;;;;;1.75;0.80;;;21.00;84.60;;;;;;5004574;28;20713;-59
2024/01/06 12:26:46;;;;;;;1.92;1.08;;;21.00;84.50;;;;;;5001426;28;20199;-67
2024/01/06 12:29:22;;;;;;;1.53;0.80;;;21.00;84.50;;;;;;4996165;28;20322;-63
2024/01/06 12:31:57;;;;;;;1.10;0.98;;;21.10;84.60;;;;;;5005435;28;20544;-61
2024/01/06 12:34:27;;;;;;;1.20;0.70;;;21.10;84.70;;;;;;5004474;28;20253;-63
2024/01/06 12:36:57;;;;;;;1.00;0.70;;;21.10;84.70;;;;;;5008464;28;20455;-65
2024/01/06 12:39:28;;;;;;;1.50;0.90;;;21.10;84.70;;;;;;5003304;28;20619;-57
2024/01/06 12:41:59;;;;;;;1.57;1.00;;;21.10;84.60;;;;;;5001093;28;20200;-61
2024/01/06 12:44:36;;;;;;;1.53;0.80;;;21.10;84.60;;;;;;4997742;28;20458;-63
2024/01/06 12:47:07;;;;;;;1.60;0.70;;;21.10;84.60;;;;;;5002324;28;20461;-63
2024/01/06 12:49:36;;;;;;;1.10;0.70;;;21.10;84.60;;;;;;5006497;28;20546;-63
2024/01/06 12:52:10;;;;;;;0.93;0.80;;;21.10;84.60;;;;;;5005697;28;20458;-63
2024/01/06 12:54:39;;;;;;;2.07;0.70;;;21.10;84.60;;;;;;5005005;28;20803;-62
2024/01/06 12:57:06;;;;;;;1.73;0.90;;;21.20;84.70;;;;;;5000775;28;20591;-61
2024/01/06 12:59:41;;;;;;;0.90;0.60;;;21.20;84.70;;;;;;5002926;28;20462;-62
2024/01/06 13:02:10;;;;;;;1.10;0.70;;;21.20;84.60;;;;;;5003972;28;20460;-61
2024/01/06 13:04:40;;;;;;;2.07;0.60;;;21.20;84.60;;;;;;5003247;28;20464;-61
2024/01/06 13:07:11;;;;;;;0.90;0.70;;;21.20;84.60;;;;;;5002163;28;20961;-62
2024/01/06 13:09:47;;;;;;;1.10;0.80;;;21.20;84.60;;;;;;4998170;28;20210;-63
2024/01/06 13:12:23;;;;;;;0.90;0.70;;;21.20;84.60;;;;;;4999596;28;20457;-62
2024/01/06 13:15:15;;;;;;;6.43;1.73;;;21.20;84.60;;;;;;4997506;28;20493;-62
2024/01/06 13:17:41;;;;;;;4.73;1.23;;;21.20;84.60;;;;;;5004301;28;20923;-65
2024/01/06 13:20:09;;;;;;;1.77;0.70;;;21.20;84.60;;;;;;5004780;28;20461;-66
2024/01/06 13:22:40;;;;;;;1.40;0.83;;;21.20;84.70;;;;;;5004277;28;20470;-65
2024/01/06 13:25:11;;;;;;;1.50;0.80;;;21.20;84.70;;;;;;5004533;28;20470;-63
2024/01/06 13:27:40;;;;;;;1.10;0.88;;;21.20;84.70;;;;;;5004054;28;21003;-64